sensor_id;sensor_type;location;lat;lon;timestamp;temperature;humidity
75819;DHT22;64453;51.944;9.796;2023-07-13T00:00:10;23.80;49.90
75819;DHT22;64453;51.944;9.796;2023-07-13T00:02:41;23.70;49.70
75819;DHT22;64453;51.944;9.796;2023-07-13T00:05:08;23.50;50.70
75819;DHT22;64453;51.944;9.796;2023-07-13T00:07:38;23.60;49.80
75819;DHT22;64453;51.944;9.796;2023-07-13T00:10:06;23.80;49.60
75819;DHT22;64453;51.944;9.796;2023-07-13T00:12:36;23.80;49.80
75819;DHT22;64453;51.944;9.796;2023-07-13T00:15:09;23.50;50.60
75819;DHT22;64453;51.944;9.796;2023-07-13T00:17:38;23.40;51.00
75819;DHT22;64453;51.944;9.796;2023-07-13T00:20:06;23.10;52.50
75819;DHT22;64453;51.944;9.796;2023-07-13T00:22:34;23.20;51.90
75819;DHT22;64453;51.944;9.796;2023-07-13T00:25:02;23.20;52.40
75819;DHT22;64453;51.944;9.796;2023-07-13T00:27:31;23.30;51.70
75819;DHT22;64453;51.944;9.796;2023-07-13T00:29:58;23.30;51.70
75819;DHT22;64453;51.944;9.796;2023-07-13T00:32:25;23.20;51.60
75819;DHT22;64453;51.944;9.796;2023-07-13T00:34:52;23.20;51.90
75819;DHT22;64453;51.944;9.796;2023-07-13T00:37:19;23.00;51.90
75819;DHT22;64453;51.944;9.796;2023-07-13T00:39:46;23.00;52.00
75819;DHT22;64453;51.944;9.796;2023-07-13T00:42:14;23.10;52.10
75819;DHT22;64453;51.944;9.796;2023-07-13T00:47:33;23.30;51.90
75819;DHT22;64453;51.944;9.796;2023-07-13T00:50:01;22.80;51.90
75819;DHT22;64453;51.944;9.796;2023-07-13T00:52:29;22.60;52.10
75819;DHT22;64453;51.944;9.796;2023-07-13T00:54:56;22.70;52.40
75819;DHT22;64453;51.944;9.796;2023-07-13T00:57:26;22.60;52.50
75819;DHT22;64453;51.944;9.796;2023-07-13T00:59:55;22.50;52.70
75819;DHT22;64453;51.944;9.796;2023-07-13T01:02:27;22.20;53.50
75819;DHT22;64453;51.944;9.796;2023-07-13T01:04:56;21.90;54.00
75819;DHT22;64453;51.944;9.796;2023-07-13T01:07:23;22.00;53.90
75819;DHT22;64453;51.944;9.796;2023-07-13T01:09:50;21.90;53.60
75819;DHT22;64453;51.944;9.796;2023-07-13T01:12:17;21.90;53.50
75819;DHT22;64453;51.944;9.796;2023-07-13T01:14:45;21.80;53.60
75819;DHT22;64453;51.944;9.796;2023-07-13T01:17:12;21.90;53.90
75819;DHT22;64453;51.944;9.796;2023-07-13T01:19:42;21.80;53.80
75819;DHT22;64453;51.944;9.796;2023-07-13T01:22:13;21.80;53.40
75819;DHT22;64453;51.944;9.796;2023-07-13T01:24:42;21.70;53.60
75819;DHT22;64453;51.944;9.796;2023-07-13T01:27:12;21.90;53.40
75819;DHT22;64453;51.944;9.796;2023-07-13T01:29:43;21.90;52.90
75819;DHT22;64453;51.944;9.796;2023-07-13T01:32:16;21.80;52.90
75819;DHT22;64453;51.944;9.796;2023-07-13T01:34:50;21.70;53.00
75819;DHT22;64453;51.944;9.796;2023-07-13T01:37:21;21.70;52.60
75819;DHT22;64453;51.944;9.796;2023-07-13T01:39:49;21.80;52.60
75819;DHT22;64453;51.944;9.796;2023-07-13T01:42:16;21.80;52.70
75819;DHT22;64453;51.944;9.796;2023-07-13T01:44:43;21.70;52.70
75819;DHT22;64453;51.944;9.796;2023-07-13T01:47:10;21.80;53.10
75819;DHT22;64453;51.944;9.796;2023-07-13T01:49:37;21.70;52.90
75819;DHT22;64453;51.944;9.796;2023-07-13T01:52:05;21.70;53.10
75819;DHT22;64453;51.944;9.796;2023-07-13T01:54:34;22.00;52.50
75819;DHT22;64453;51.944;9.796;2023-07-13T01:57:01;21.50;52.20
75819;DHT22;64453;51.944;9.796;2023-07-13T01:59:28;21.60;52.20
75819;DHT22;64453;51.944;9.796;2023-07-13T02:01:55;21.50;52.10
75819;DHT22;64453;51.944;9.796;2023-07-13T02:04:22;21.50;52.20
75819;DHT22;64453;51.944;9.796;2023-07-13T02:06:49;21.40;52.30
75819;DHT22;64453;51.944;9.796;2023-07-13T02:09:16;21.60;51.90
75819;DHT22;64453;51.944;9.796;2023-07-13T02:11:44;21.20;52.10
75819;DHT22;64453;51.944;9.796;2023-07-13T02:14:11;21.50;52.10
75819;DHT22;64453;51.944;9.796;2023-07-13T02:16:39;21.30;52.20
75819;DHT22;64453;51.944;9.796;2023-07-13T02:19:06;21.40;52.10
75819;DHT22;64453;51.944;9.796;2023-07-13T02:21:33;21.40;53.20
75819;DHT22;64453;51.944;9.796;2023-07-13T02:24:00;21.40;51.60
75819;DHT22;64453;51.944;9.796;2023-07-13T02:26:27;21.40;51.90
75819;DHT22;64453;51.944;9.796;2023-07-13T02:28:56;21.40;52.60
75819;DHT22;64453;51.944;9.796;2023-07-13T02:31:22;21.30;52.80
75819;DHT22;64453;51.944;9.796;2023-07-13T02:33:49;21.20;52.70
75819;DHT22;64453;51.944;9.796;2023-07-13T02:36:16;21.30;52.70
75819;DHT22;64453;51.944;9.796;2023-07-13T02:38:44;21.20;52.30
75819;DHT22;64453;51.944;9.796;2023-07-13T02:41:11;21.20;52.10
75819;DHT22;64453;51.944;9.796;2023-07-13T02:43:38;21.30;52.10
75819;DHT22;64453;51.944;9.796;2023-07-13T02:46:07;21.30;52.20
75819;DHT22;64453;51.944;9.796;2023-07-13T02:48:35;21.30;51.90
75819;DHT22;64453;51.944;9.796;2023-07-13T02:51:02;21.00;51.90
75819;DHT22;64453;51.944;9.796;2023-07-13T02:53:29;20.70;52.70
75819;DHT22;64453;51.944;9.796;2023-07-13T02:55:56;20.50;53.20
75819;DHT22;64453;51.944;9.796;2023-07-13T02:58:23;20.60;53.10
75819;DHT22;64453;51.944;9.796;2023-07-13T03:00:50;20.60;52.70
75819;DHT22;64453;51.944;9.796;2023-07-13T03:03:19;20.30;52.40
75819;DHT22;64453;51.944;9.796;2023-07-13T03:05:46;20.30;53.20
75819;DHT22;64453;51.944;9.796;2023-07-13T03:08:16;20.60;53.00
75819;DHT22;64453;51.944;9.796;2023-07-13T03:10:44;20.50;52.90
75819;DHT22;64453;51.944;9.796;2023-07-13T03:13:11;20.70;52.80
75819;DHT22;64453;51.944;9.796;2023-07-13T03:15:38;20.70;52.30
75819;DHT22;64453;51.944;9.796;2023-07-13T03:18:05;20.50;52.00
75819;DHT22;64453;51.944;9.796;2023-07-13T03:20:34;20.50;52.50
75819;DHT22;64453;51.944;9.796;2023-07-13T03:23:01;20.50;52.70
75819;DHT22;64453;51.944;9.796;2023-07-13T03:25:28;20.90;52.00
75819;DHT22;64453;51.944;9.796;2023-07-13T03:27:55;21.00;51.70
75819;DHT22;64453;51.944;9.796;2023-07-13T03:30:22;20.60;51.60
75819;DHT22;64453;51.944;9.796;2023-07-13T03:32:49;20.60;52.20
75819;DHT22;64453;51.944;9.796;2023-07-13T03:35:17;20.60;52.60
75819;DHT22;64453;51.944;9.796;2023-07-13T03:37:45;20.60;52.60
75819;DHT22;64453;51.944;9.796;2023-07-13T03:40:12;20.40;52.60
75819;DHT22;64453;51.944;9.796;2023-07-13T03:42:39;20.00;52.70
75819;DHT22;64453;51.944;9.796;2023-07-13T03:45:08;20.40;52.80
75819;DHT22;64453;51.944;9.796;2023-07-13T03:47:35;20.50;52.30
75819;DHT22;64453;51.944;9.796;2023-07-13T03:50:02;20.60;51.80
75819;DHT22;64453;51.944;9.796;2023-07-13T03:52:29;20.50;52.10
75819;DHT22;64453;51.944;9.796;2023-07-13T03:54:58;20.50;52.20
75819;DHT22;64453;51.944;9.796;2023-07-13T03:57:25;20.70;52.10
75819;DHT22;64453;51.944;9.796;2023-07-13T03:59:52;20.90;51.60
75819;DHT22;64453;51.944;9.796;2023-07-13T04:02:18;21.10;51.60
75819;DHT22;64453;51.944;9.796;2023-07-13T04:04:46;21.20;51.30
75819;DHT22;64453;51.944;9.796;2023-07-13T04:07:13;21.30;51.40
75819;DHT22;64453;51.944;9.796;2023-07-13T04:09:40;21.30;51.40
75819;DHT22;64453;51.944;9.796;2023-07-13T04:12:08;20.90;51.80
75819;DHT22;64453;51.944;9.796;2023-07-13T04:14:35;20.60;52.30
75819;DHT22;64453;51.944;9.796;2023-07-13T04:17:02;20.80;52.40
75819;DHT22;64453;51.944;9.796;2023-07-13T04:19:30;21.00;52.00
75819;DHT22;64453;51.944;9.796;2023-07-13T04:21:57;21.10;52.00
75819;DHT22;64453;51.944;9.796;2023-07-13T04:24:23;21.10;51.90
75819;DHT22;64453;51.944;9.796;2023-07-13T04:26:50;20.90;51.90
75819;DHT22;64453;51.944;9.796;2023-07-13T04:29:18;21.00;52.10
75819;DHT22;64453;51.944;9.796;2023-07-13T04:31:46;20.70;52.30
75819;DHT22;64453;51.944;9.796;2023-07-13T04:34:13;20.70;52.80
75819;DHT22;64453;51.944;9.796;2023-07-13T04:36:40;20.70;53.10
75819;DHT22;64453;51.944;9.796;2023-07-13T04:39:07;20.90;53.00
75819;DHT22;64453;51.944;9.796;2023-07-13T04:41:34;21.00;52.70
75819;DHT22;64453;51.944;9.796;2023-07-13T04:44:01;21.10;53.10
75819;DHT22;64453;51.944;9.796;2023-07-13T04:46:30;21.10;53.80
75819;DHT22;64453;51.944;9.796;2023-07-13T04:48:57;21.20;54.20
75819;DHT22;64453;51.944;9.796;2023-07-13T04:51:24;21.30;54.20
75819;DHT22;64453;51.944;9.796;2023-07-13T04:53:51;21.20;53.50
75819;DHT22;64453;51.944;9.796;2023-07-13T04:56:19;21.40;53.70
75819;DHT22;64453;51.944;9.796;2023-07-13T04:58:46;21.40;53.80
75819;DHT22;64453;51.944;9.796;2023-07-13T05:01:13;21.50;53.80
75819;DHT22;64453;51.944;9.796;2023-07-13T05:03:41;21.50;53.60
75819;DHT22;64453;51.944;9.796;2023-07-13T05:06:09;21.70;53.50
75819;DHT22;64453;51.944;9.796;2023-07-13T05:08:36;21.90;53.50
75819;DHT22;64453;51.944;9.796;2023-07-13T05:11:04;21.90;52.60
75819;DHT22;64453;51.944;9.796;2023-07-13T05:13:31;22.00;51.80
75819;DHT22;64453;51.944;9.796;2023-07-13T05:15:59;22.30;51.60
75819;DHT22;64453;51.944;9.796;2023-07-13T05:18:28;22.40;51.20
75819;DHT22;64453;51.944;9.796;2023-07-13T05:21:00;22.30;50.20
75819;DHT22;64453;51.944;9.796;2023-07-13T05:23:28;22.20;50.50
75819;DHT22;64453;51.944;9.796;2023-07-13T05:25:56;22.10;50.30
75819;DHT22;64453;51.944;9.796;2023-07-13T05:28:24;22.10;50.90
75819;DHT22;64453;51.944;9.796;2023-07-13T05:30:51;22.20;50.30
75819;DHT22;64453;51.944;9.796;2023-07-13T05:33:19;22.30;50.40
75819;DHT22;64453;51.944;9.796;2023-07-13T05:35:47;22.50;49.70
75819;DHT22;64453;51.944;9.796;2023-07-13T05:38:15;22.30;49.10
75819;DHT22;64453;51.944;9.796;2023-07-13T05:40:42;22.20;49.80
75819;DHT22;64453;51.944;9.796;2023-07-13T05:43:10;22.20;49.40
75819;DHT22;64453;51.944;9.796;2023-07-13T05:45:37;21.70;49.40
75819;DHT22;64453;51.944;9.796;2023-07-13T05:48:04;21.60;50.00
75819;DHT22;64453;51.944;9.796;2023-07-13T05:50:31;21.80;49.50
75819;DHT22;64453;51.944;9.796;2023-07-13T05:52:58;21.80;49.40
75819;DHT22;64453;51.944;9.796;2023-07-13T05:55:26;22.00;49.20
75819;DHT22;64453;51.944;9.796;2023-07-13T05:57:53;22.30;48.70
75819;DHT22;64453;51.944;9.796;2023-07-13T06:00:20;22.60;48.40
75819;DHT22;64453;51.944;9.796;2023-07-13T06:02:47;22.60;47.90
75819;DHT22;64453;51.944;9.796;2023-07-13T06:05:14;22.20;48.10
75819;DHT22;64453;51.944;9.796;2023-07-13T06:07:41;22.40;47.70
75819;DHT22;64453;51.944;9.796;2023-07-13T06:10:09;22.30;47.80
75819;DHT22;64453;51.944;9.796;2023-07-13T06:12:38;22.40;47.80
75819;DHT22;64453;51.944;9.796;2023-07-13T06:15:06;22.30;47.60
75819;DHT22;64453;51.944;9.796;2023-07-13T06:17:34;22.20;47.80
75819;DHT22;64453;51.944;9.796;2023-07-13T06:20:01;22.60;48.10
75819;DHT22;64453;51.944;9.796;2023-07-13T06:22:28;22.70;47.50
75819;DHT22;64453;51.944;9.796;2023-07-13T06:24:55;22.80;46.80
75819;DHT22;64453;51.944;9.796;2023-07-13T06:27:22;22.90;47.50
75819;DHT22;64453;51.944;9.796;2023-07-13T06:29:50;22.80;46.60
75819;DHT22;64453;51.944;9.796;2023-07-13T06:32:17;22.90;47.10
75819;DHT22;64453;51.944;9.796;2023-07-13T06:34:44;22.50;46.50
75819;DHT22;64453;51.944;9.796;2023-07-13T06:37:11;22.40;47.20
75819;DHT22;64453;51.944;9.796;2023-07-13T06:39:38;22.50;47.50
75819;DHT22;64453;51.944;9.796;2023-07-13T06:42:05;22.70;46.80
75819;DHT22;64453;51.944;9.796;2023-07-13T06:44:33;22.50;47.20
75819;DHT22;64453;51.944;9.796;2023-07-13T06:47:01;22.40;48.20
75819;DHT22;64453;51.944;9.796;2023-07-13T06:49:28;22.00;47.10
75819;DHT22;64453;51.944;9.796;2023-07-13T06:51:55;21.50;48.20
75819;DHT22;64453;51.944;9.796;2023-07-13T06:54:22;21.50;48.50
75819;DHT22;64453;51.944;9.796;2023-07-13T06:56:49;21.60;49.00
75819;DHT22;64453;51.944;9.796;2023-07-13T06:59:16;21.70;48.00
75819;DHT22;64453;51.944;9.796;2023-07-13T07:01:43;21.60;48.30
75819;DHT22;64453;51.944;9.796;2023-07-13T07:04:11;21.80;47.90
75819;DHT22;64453;51.944;9.796;2023-07-13T07:06:38;21.90;48.50
75819;DHT22;64453;51.944;9.796;2023-07-13T07:09:04;22.20;48.70
75819;DHT22;64453;51.944;9.796;2023-07-13T07:11:31;22.10;47.70
75819;DHT22;64453;51.944;9.796;2023-07-13T07:13:58;22.30;47.60
75819;DHT22;64453;51.944;9.796;2023-07-13T07:16:25;22.00;47.90
75819;DHT22;64453;51.944;9.796;2023-07-13T07:18:52;22.30;47.90
75819;DHT22;64453;51.944;9.796;2023-07-13T07:21:21;22.30;47.40
75819;DHT22;64453;51.944;9.796;2023-07-13T07:23:49;22.40;47.20
75819;DHT22;64453;51.944;9.796;2023-07-13T07:26:18;22.50;48.00
75819;DHT22;64453;51.944;9.796;2023-07-13T07:28:45;22.30;46.60
75819;DHT22;64453;51.944;9.796;2023-07-13T07:31:11;22.00;46.70
75819;DHT22;64453;51.944;9.796;2023-07-13T07:33:38;22.20;47.90
75819;DHT22;64453;51.944;9.796;2023-07-13T07:36:05;22.30;47.40
75819;DHT22;64453;51.944;9.796;2023-07-13T07:38:34;22.10;48.00
75819;DHT22;64453;51.944;9.796;2023-07-13T07:41:03;22.40;47.80
75819;DHT22;64453;51.944;9.796;2023-07-13T07:43:30;22.20;46.80
75819;DHT22;64453;51.944;9.796;2023-07-13T07:45:58;21.70;47.60
75819;DHT22;64453;51.944;9.796;2023-07-13T07:48:25;22.00;47.80
75819;DHT22;64453;51.944;9.796;2023-07-13T07:50:51;22.40;47.10
75819;DHT22;64453;51.944;9.796;2023-07-13T07:53:18;22.30;46.30
75819;DHT22;64453;51.944;9.796;2023-07-13T07:55:47;22.20;46.60
75819;DHT22;64453;51.944;9.796;2023-07-13T07:58:14;22.20;47.30
75819;DHT22;64453;51.944;9.796;2023-07-13T08:00:42;22.30;47.30
75819;DHT22;64453;51.944;9.796;2023-07-13T08:03:10;22.70;46.90
75819;DHT22;64453;51.944;9.796;2023-07-13T08:05:37;22.40;46.50
75819;DHT22;64453;51.944;9.796;2023-07-13T08:08:04;22.70;46.30
75819;DHT22;64453;51.944;9.796;2023-07-13T08:10:31;22.80;46.40
75819;DHT22;64453;51.944;9.796;2023-07-13T08:12:59;22.70;46.80
75819;DHT22;64453;51.944;9.796;2023-07-13T08:15:26;22.50;46.20
75819;DHT22;64453;51.944;9.796;2023-07-13T08:17:53;22.90;46.40
75819;DHT22;64453;51.944;9.796;2023-07-13T08:20:20;23.00;46.80
75819;DHT22;64453;51.944;9.796;2023-07-13T08:22:47;23.00;46.90
75819;DHT22;64453;51.944;9.796;2023-07-13T08:25:14;23.30;46.30
75819;DHT22;64453;51.944;9.796;2023-07-13T08:27:41;22.70;46.70
75819;DHT22;64453;51.944;9.796;2023-07-13T08:30:10;23.00;46.20
75819;DHT22;64453;51.944;9.796;2023-07-13T08:32:38;23.00;46.40
75819;DHT22;64453;51.944;9.796;2023-07-13T08:35:06;22.50;46.70
75819;DHT22;64453;51.944;9.796;2023-07-13T08:37:33;22.50;46.70
75819;DHT22;64453;51.944;9.796;2023-07-13T08:40:00;22.60;47.10
75819;DHT22;64453;51.944;9.796;2023-07-13T08:42:36;22.90;46.90
75819;DHT22;64453;51.944;9.796;2023-07-13T08:45:08;22.70;46.70
75819;DHT22;64453;51.944;9.796;2023-07-13T08:47:47;22.70;47.50
75819;DHT22;64453;51.944;9.796;2023-07-13T08:50:18;23.00;47.60
75819;DHT22;64453;51.944;9.796;2023-07-13T08:52:46;23.30;47.00
75819;DHT22;64453;51.944;9.796;2023-07-13T08:55:15;23.30;46.60
75819;DHT22;64453;51.944;9.796;2023-07-13T08:57:47;23.30;46.50
75819;DHT22;64453;51.944;9.796;2023-07-13T09:00:19;23.00;46.60
75819;DHT22;64453;51.944;9.796;2023-07-13T09:02:50;23.20;47.00
75819;DHT22;64453;51.944;9.796;2023-07-13T09:05:25;23.50;47.10
75819;DHT22;64453;51.944;9.796;2023-07-13T09:08:06;23.20;47.40
75819;DHT22;64453;51.944;9.796;2023-07-13T09:10:43;23.10;48.40
75819;DHT22;64453;51.944;9.796;2023-07-13T09:13:22;23.40;46.80
75819;DHT22;64453;51.944;9.796;2023-07-13T09:15:54;23.30;47.30
75819;DHT22;64453;51.944;9.796;2023-07-13T09:18:26;23.30;47.20
75819;DHT22;64453;51.944;9.796;2023-07-13T09:20:58;22.90;47.20
75819;DHT22;64453;51.944;9.796;2023-07-13T09:23:28;23.00;47.40
75819;DHT22;64453;51.944;9.796;2023-07-13T09:26:01;23.00;47.30
75819;DHT22;64453;51.944;9.796;2023-07-13T09:28:35;23.60;47.10
75819;DHT22;64453;51.944;9.796;2023-07-13T09:31:10;23.40;46.50
75819;DHT22;64453;51.944;9.796;2023-07-13T09:33:40;23.40;47.40
75819;DHT22;64453;51.944;9.796;2023-07-13T09:36:19;23.50;46.70
75819;DHT22;64453;51.944;9.796;2023-07-13T09:38:58;23.20;47.00
75819;DHT22;64453;51.944;9.796;2023-07-13T09:41:36;23.50;46.30
75819;DHT22;64453;51.944;9.796;2023-07-13T09:44:09;23.50;46.50
75819;DHT22;64453;51.944;9.796;2023-07-13T09:46:39;23.60;46.50
75819;DHT22;64453;51.944;9.796;2023-07-13T09:49:11;23.60;45.20
75819;DHT22;64453;51.944;9.796;2023-07-13T09:51:38;23.10;46.40
75819;DHT22;64453;51.944;9.796;2023-07-13T09:54:18;23.50;47.10
75819;DHT22;64453;51.944;9.796;2023-07-13T09:56:45;23.70;45.10
75819;DHT22;64453;51.944;9.796;2023-07-13T09:59:19;23.80;44.80
75819;DHT22;64453;51.944;9.796;2023-07-13T10:01:48;23.50;45.50
75819;DHT22;64453;51.944;9.796;2023-07-13T10:04:18;23.30;45.30
75819;DHT22;64453;51.944;9.796;2023-07-13T10:06:46;23.50;45.20
75819;DHT22;64453;51.944;9.796;2023-07-13T10:09:15;23.50;45.70
75819;DHT22;64453;51.944;9.796;2023-07-13T10:11:44;23.50;46.00
75819;DHT22;64453;51.944;9.796;2023-07-13T10:14:15;23.40;45.00
75819;DHT22;64453;51.944;9.796;2023-07-13T10:16:45;23.70;45.20
75819;DHT22;64453;51.944;9.796;2023-07-13T10:19:26;23.30;45.30
75819;DHT22;64453;51.944;9.796;2023-07-13T10:21:59;23.20;45.00
75819;DHT22;64453;51.944;9.796;2023-07-13T10:24:31;23.10;45.30
75819;DHT22;64453;51.944;9.796;2023-07-13T10:27:03;23.30;45.30
75819;DHT22;64453;51.944;9.796;2023-07-13T10:29:47;23.50;44.70
75819;DHT22;64453;51.944;9.796;2023-07-13T10:32:19;23.30;45.00
75819;DHT22;64453;51.944;9.796;2023-07-13T10:34:49;23.50;45.20
75819;DHT22;64453;51.944;9.796;2023-07-13T10:37:20;23.40;44.40
75819;DHT22;64453;51.944;9.796;2023-07-13T10:39:51;23.50;45.00
75819;DHT22;64453;51.944;9.796;2023-07-13T10:42:28;23.80;45.10
75819;DHT22;64453;51.944;9.796;2023-07-13T10:44:57;23.90;44.40
75819;DHT22;64453;51.944;9.796;2023-07-13T10:47:26;24.30;45.10
75819;DHT22;64453;51.944;9.796;2023-07-13T10:49:56;24.40;44.20
75819;DHT22;64453;51.944;9.796;2023-07-13T10:52:45;24.70;44.10
75819;DHT22;64453;51.944;9.796;2023-07-13T10:55:33;24.50;43.10
75819;DHT22;64453;51.944;9.796;2023-07-13T10:58:03;24.20;43.60
75819;DHT22;64453;51.944;9.796;2023-07-13T11:00:47;24.50;43.80
75819;DHT22;64453;51.944;9.796;2023-07-13T11:03:19;24.60;43.40
75819;DHT22;64453;51.944;9.796;2023-07-13T11:05:51;24.70;43.80
75819;DHT22;64453;51.944;9.796;2023-07-13T11:08:36;24.60;42.90
75819;DHT22;64453;51.944;9.796;2023-07-13T11:11:34;24.30;42.40
75819;DHT22;64453;51.944;9.796;2023-07-13T11:14:04;24.70;44.30
75819;DHT22;64453;51.944;9.796;2023-07-13T11:16:45;25.20;43.50
75819;DHT22;64453;51.944;9.796;2023-07-13T11:19:40;25.30;41.90
75819;DHT22;64453;51.944;9.796;2023-07-13T11:22:26;25.30;41.30
75819;DHT22;64453;51.944;9.796;2023-07-13T11:25:26;25.40;42.30
75819;DHT22;64453;51.944;9.796;2023-07-13T11:28:21;25.30;41.40
75819;DHT22;64453;51.944;9.796;2023-07-13T11:31:03;25.00;42.10
75819;DHT22;64453;51.944;9.796;2023-07-13T11:34:07;25.10;43.20
75819;DHT22;64453;51.944;9.796;2023-07-13T11:36:43;25.10;42.80
75819;DHT22;64453;51.944;9.796;2023-07-13T11:39:18;25.10;40.70
75819;DHT22;64453;51.944;9.796;2023-07-13T11:41:51;25.20;40.60
75819;DHT22;64453;51.944;9.796;2023-07-13T11:44:23;25.20;41.00
75819;DHT22;64453;51.944;9.796;2023-07-13T11:46:52;25.40;40.60
75819;DHT22;64453;51.944;9.796;2023-07-13T11:49:22;25.50;39.70
75819;DHT22;64453;51.944;9.796;2023-07-13T11:51:51;25.40;38.40
75819;DHT22;64453;51.944;9.796;2023-07-13T11:54:25;25.30;39.90
75819;DHT22;64453;51.944;9.796;2023-07-13T11:56:56;25.40;40.40
75819;DHT22;64453;51.944;9.796;2023-07-13T11:59:27;25.50;40.00
75819;DHT22;64453;51.944;9.796;2023-07-13T12:01:57;25.70;40.70
75819;DHT22;64453;51.944;9.796;2023-07-13T12:04:26;25.60;39.50
75819;DHT22;64453;51.944;9.796;2023-07-13T12:07:05;25.60;39.80
75819;DHT22;64453;51.944;9.796;2023-07-13T12:09:34;25.70;40.40
75819;DHT22;64453;51.944;9.796;2023-07-13T12:12:03;25.80;39.00
75819;DHT22;64453;51.944;9.796;2023-07-13T12:14:35;25.90;39.30
75819;DHT22;64453;51.944;9.796;2023-07-13T12:17:09;25.60;39.20
75819;DHT22;64453;51.944;9.796;2023-07-13T12:19:41;25.40;40.20
75819;DHT22;64453;51.944;9.796;2023-07-13T12:22:12;25.40;41.20
75819;DHT22;64453;51.944;9.796;2023-07-13T12:24:40;25.30;40.90
75819;DHT22;64453;51.944;9.796;2023-07-13T12:27:19;25.30;40.90
75819;DHT22;64453;51.944;9.796;2023-07-13T12:29:52;25.30;40.60
75819;DHT22;64453;51.944;9.796;2023-07-13T12:32:24;25.40;39.70
75819;DHT22;64453;51.944;9.796;2023-07-13T12:34:53;25.40;39.30
75819;DHT22;64453;51.944;9.796;2023-07-13T12:37:23;25.60;39.10
75819;DHT22;64453;51.944;9.796;2023-07-13T12:39:51;25.50;39.00
75819;DHT22;64453;51.944;9.796;2023-07-13T12:42:21;25.40;39.80
75819;DHT22;64453;51.944;9.796;2023-07-13T12:44:53;25.30;40.50
75819;DHT22;64453;51.944;9.796;2023-07-13T12:47:21;25.40;41.00
75819;DHT22;64453;51.944;9.796;2023-07-13T12:49:53;25.30;40.80
75819;DHT22;64453;51.944;9.796;2023-07-13T12:52:28;25.30;40.60
75819;DHT22;64453;51.944;9.796;2023-07-13T12:55:03;25.40;38.80
75819;DHT22;64453;51.944;9.796;2023-07-13T12:57:31;25.60;39.20
75819;DHT22;64453;51.944;9.796;2023-07-13T12:59:58;25.70;39.10
75819;DHT22;64453;51.944;9.796;2023-07-13T13:02:29;25.40;36.80
75819;DHT22;64453;51.944;9.796;2023-07-13T13:04:57;24.90;37.30
75819;DHT22;64453;51.944;9.796;2023-07-13T13:07:26;25.10;38.10
75819;DHT22;64453;51.944;9.796;2023-07-13T13:09:54;25.30;37.90
75819;DHT22;64453;51.944;9.796;2023-07-13T13:12:22;25.10;38.20
75819;DHT22;64453;51.944;9.796;2023-07-13T13:14:51;25.00;38.90
75819;DHT22;64453;51.944;9.796;2023-07-13T13:17:20;25.30;39.10
75819;DHT22;64453;51.944;9.796;2023-07-13T13:19:50;25.50;38.10
75819;DHT22;64453;51.944;9.796;2023-07-13T13:22:18;25.30;38.60
75819;DHT22;64453;51.944;9.796;2023-07-13T13:24:47;25.20;39.10
75819;DHT22;64453;51.944;9.796;2023-07-13T13:27:18;25.20;39.80
75819;DHT22;64453;51.944;9.796;2023-07-13T13:29:49;24.90;39.10
75819;DHT22;64453;51.944;9.796;2023-07-13T13:32:18;25.20;39.40
75819;DHT22;64453;51.944;9.796;2023-07-13T13:34:45;24.90;40.80
75819;DHT22;64453;51.944;9.796;2023-07-13T13:37:17;25.20;41.00
75819;DHT22;64453;51.944;9.796;2023-07-13T13:39:47;25.60;40.30
75819;DHT22;64453;51.944;9.796;2023-07-13T13:42:15;25.80;39.90
75819;DHT22;64453;51.944;9.796;2023-07-13T13:44:42;25.90;40.80
75819;DHT22;64453;51.944;9.796;2023-07-13T13:47:27;25.80;39.60
75819;DHT22;64453;51.944;9.796;2023-07-13T13:49:56;25.90;38.90
75819;DHT22;64453;51.944;9.796;2023-07-13T13:52:24;25.60;38.10
75819;DHT22;64453;51.944;9.796;2023-07-13T13:54:52;25.90;38.60
75819;DHT22;64453;51.944;9.796;2023-07-13T13:57:22;26.00;38.60
75819;DHT22;64453;51.944;9.796;2023-07-13T13:59:50;25.90;39.30
75819;DHT22;64453;51.944;9.796;2023-07-13T14:02:25;26.00;38.90
75819;DHT22;64453;51.944;9.796;2023-07-13T14:04:56;26.20;38.10
75819;DHT22;64453;51.944;9.796;2023-07-13T14:07:26;26.20;37.70
75819;DHT22;64453;51.944;9.796;2023-07-13T14:09:58;25.80;37.80
75819;DHT22;64453;51.944;9.796;2023-07-13T14:12:27;25.40;38.60
75819;DHT22;64453;51.944;9.796;2023-07-13T14:14:55;25.70;38.30
75819;DHT22;64453;51.944;9.796;2023-07-13T14:17:25;25.90;38.10
75819;DHT22;64453;51.944;9.796;2023-07-13T14:19:54;26.20;37.90
75819;DHT22;64453;51.944;9.796;2023-07-13T14:22:23;26.20;38.30
75819;DHT22;64453;51.944;9.796;2023-07-13T14:24:52;26.00;38.70
75819;DHT22;64453;51.944;9.796;2023-07-13T14:27:21;26.10;39.40
75819;DHT22;64453;51.944;9.796;2023-07-13T14:29:48;26.20;38.40
75819;DHT22;64453;51.944;9.796;2023-07-13T14:32:16;26.40;38.80
75819;DHT22;64453;51.944;9.796;2023-07-13T14:34:43;26.50;38.90
75819;DHT22;64453;51.944;9.796;2023-07-13T14:37:13;26.20;39.20
75819;DHT22;64453;51.944;9.796;2023-07-13T14:39:44;26.70;39.20
75819;DHT22;64453;51.944;9.796;2023-07-13T14:42:11;26.30;38.10
75819;DHT22;64453;51.944;9.796;2023-07-13T14:44:39;26.20;37.80
75819;DHT22;64453;51.944;9.796;2023-07-13T14:47:07;25.90;38.80
75819;DHT22;64453;51.944;9.796;2023-07-13T14:49:36;25.50;38.60
75819;DHT22;64453;51.944;9.796;2023-07-13T14:52:11;25.20;39.00
75819;DHT22;64453;51.944;9.796;2023-07-13T14:54:39;25.30;38.70
75819;DHT22;64453;51.944;9.796;2023-07-13T14:57:10;25.10;38.70
75819;DHT22;64453;51.944;9.796;2023-07-13T14:59:39;25.20;38.70
75819;DHT22;64453;51.944;9.796;2023-07-13T15:02:15;25.40;40.10
75819;DHT22;64453;51.944;9.796;2023-07-13T15:04:44;25.70;39.30
75819;DHT22;64453;51.944;9.796;2023-07-13T15:07:11;25.20;39.40
75819;DHT22;64453;51.944;9.796;2023-07-13T15:09:38;25.50;39.60
75819;DHT22;64453;51.944;9.796;2023-07-13T15:12:07;25.80;39.70
75819;DHT22;64453;51.944;9.796;2023-07-13T15:14:34;25.90;40.40
75819;DHT22;64453;51.944;9.796;2023-07-13T15:17:02;26.20;43.50
75819;DHT22;64453;51.944;9.796;2023-07-13T15:19:31;25.90;44.10
75819;DHT22;64453;51.944;9.796;2023-07-13T15:21:58;25.60;45.10
75819;DHT22;64453;51.944;9.796;2023-07-13T15:24:25;25.50;45.20
75819;DHT22;64453;51.944;9.796;2023-07-13T15:26:52;25.00;46.10
75819;DHT22;64453;51.944;9.796;2023-07-13T15:29:19;25.40;46.00
75819;DHT22;64453;51.944;9.796;2023-07-13T15:31:47;25.10;44.80
75819;DHT22;64453;51.944;9.796;2023-07-13T15:34:18;25.10;44.90
75819;DHT22;64453;51.944;9.796;2023-07-13T15:36:49;25.10;44.80
75819;DHT22;64453;51.944;9.796;2023-07-13T15:39:17;25.60;44.70
75819;DHT22;64453;51.944;9.796;2023-07-13T15:41:45;25.00;45.00
75819;DHT22;64453;51.944;9.796;2023-07-13T15:44:23;24.80;44.80
75819;DHT22;64453;51.944;9.796;2023-07-13T15:46:52;24.80;45.50